METAR Data
IDs: Format: Raw Decoded Include TAF

Data at: 0124 UTC 16 Jan 2019

METAR for:PAKF (False Pass Arpt, AK, US)
Text:PAKF 160056Z AUTO 01009KT 10SM -RA FEW011 OVC016 02/01 A2947 RMK AO2 UPB33E44 SLP979 P0000 T00170006 FZRANO
Temperature: 1.7°C ( 35°F)
Dewpoint: 0.6°C ( 33°F) [RH = 92%]
Pressure (altimeter):29.47 inches Hg ( 998.1 mb) [Sea level pressure: 997.9 mb]
Winds:from the N (10 degrees) at 10 MPH (9 knots; 4.6 m/s)
Visibility:10 or more sm (16+ km)
Ceiling:1600 feet AGL
Clouds: few clouds at 1100 feet AGL, overcast cloud deck at 1600 feet AGL
Weather:-RA (light rain)
QC Flag:automated observation with no human augmentation
Text:PAKF 160006Z AUTO 03010KT 10SM -RA FEW011 SCT016 OVC029 02/00 A2946 RMK AO2 P0000 FZRANO
Temperature: 2.0°C ( 36°F)
Dewpoint: 0.0°C ( 32°F) [RH = 87%]
Pressure (altimeter):29.46 inches Hg ( 997.7 mb)
Winds:from the NNE (30 degrees) at 12 MPH (10 knots; 5.1 m/s)
Visibility:10 or more sm (16+ km)
Ceiling:2900 feet AGL
Clouds: few clouds at 1100 feet AGL, scattered clouds at 1600 feet AGL, overcast cloud deck at 2900 feet AGL
Weather:-RA (light rain)
QC Flag:automated observation with no human augmentation
Text:PAKF 152356Z AUTO 02008KT 10SM -RA FEW017 SCT027 OVC033 02/00 A2946 RMK AO2 UPB33E46RAB46 SLP977 P0000 60000 T00170000 10033 20006 56004 FZRANO
Temperature: 1.7°C ( 35°F)
Dewpoint: 0.0°C ( 32°F) [RH = 88%]
Pressure (altimeter):29.46 inches Hg ( 997.7 mb) [Sea level pressure: 997.7 mb]
Winds:from the NNE (20 degrees) at 9 MPH (8 knots; 4.1 m/s)
Visibility:10 or more sm (16+ km)
Ceiling:3300 feet AGL
Clouds: few clouds at 1700 feet AGL, scattered clouds at 2700 feet AGL, overcast cloud deck at 3300 feet AGL
Weather:-RA (light rain)
QC Flag:automated observation with no human augmentation
Text:PAKF 152256Z AUTO 31003KT 10SM OVC050 03/M01 A2946 RMK AO2 SLP977 T00331006
Temperature: 3.3°C ( 38°F)
Dewpoint: -0.6°C ( 31°F) [RH = 76%]
Pressure (altimeter):29.46 inches Hg ( 997.7 mb) [Sea level pressure: 997.7 mb]
Winds:from the NW (310 degrees) at 3 MPH (3 knots; 1.5 m/s)
Visibility:10 or more sm (16+ km)
Ceiling:5000 feet AGL
Clouds: overcast cloud deck at 5000 feet AGL
QC Flag:automated observation with no human augmentation
Text:PAKF 152156Z AUTO 00000KT 10SM OVC075 03/M02 A2947 RMK AO2 SLP979 T00281022
Temperature: 2.8°C ( 37°F)
Dewpoint: -2.2°C ( 28°F) [RH = 70%]
Pressure (altimeter):29.47 inches Hg ( 998.1 mb) [Sea level pressure: 997.9 mb]
Winds:calm
Visibility:10 or more sm (16+ km)
Ceiling:7500 feet AGL
Clouds: overcast cloud deck at 7500 feet AGL
QC Flag:automated observation with no human augmentation
Text:PAKF 152056Z AUTO 00000KT 10SM OVC100 02/M02 A2948 RMK AO2 SLP981 T00221022 53011 FZRANO
Temperature: 2.2°C ( 36°F)
Dewpoint: -2.2°C ( 28°F) [RH = 73%]
Pressure (altimeter):29.48 inches Hg ( 998.4 mb) [Sea level pressure: 998.1 mb]
Winds:calm
Visibility:10 or more sm (16+ km)
Ceiling:10000 feet AGL
Clouds: overcast cloud deck at 10000 feet AGL
QC Flag:automated observation with no human augmentation
Text:PAKF 151956Z AUTO 00000KT 10SM SCT120 01/M02 A2947 RMK AO2 SLP980 T00111017 FZRANO
Temperature: 1.1°C ( 34°F)
Dewpoint: -1.7°C ( 29°F) [RH = 82%]
Pressure (altimeter):29.47 inches Hg ( 998.1 mb) [Sea level pressure: 998.0 mb]
Winds:calm
Visibility:10 or more sm (16+ km)
Ceiling:at least 12,000 feet AGL
Clouds: scattered clouds at 12000 feet AGL
QC Flag:automated observation with no human augmentation

TAF for:PAKF (False Pass Arpt, AK, US)
Text:No data found